Terminal Aerodrome Forecast
Issued by NWS

Home | Current Version | Previous Version | Text Only | Print | Product List | Glossary On
Versions: 1 2 3 4 5 6 7 8 9 10 11 12 13 14 15 16 17 18 19 20 21 22 23 24 25 26 27
000
FTUS44 KLZK 181700
TAFHRO
TAF
KHRO 181733Z 1818/1918 08008KT P6SM BKN009 OVC015
      TEMPO 1818/1821 SCT009 OVC015
     FM182100 11006KT P6SM SCT015 BKN050
      TEMPO 1821/1823 BKN015
     FM190000 12005KT P6SM BKN250
     FM190600 VRB03KT 2SM BR OVC005
     FM191000 VRB03KT 1/2SM FG OVC005
     FM191500 13006KT 5SM BR SCT010 BKN050=

USA.gov is the U.S. government's official web portal to all federal, state and local government web resources and services.